sensor_id;sensor_type;location;lat;lon;timestamp;temperature;humidity
51500;DHT22;39101;53.478;6.158;2022-07-23T00:01:23;15.00;99.90
51500;DHT22;39101;53.478;6.158;2022-07-23T00:03:49;15.00;99.90
51500;DHT22;39101;53.478;6.158;2022-07-23T00:06:15;15.00;99.90
51500;DHT22;39101;53.478;6.158;2022-07-23T00:08:41;15.00;99.90
51500;DHT22;39101;53.478;6.158;2022-07-23T00:11:07;15.00;99.90
51500;DHT22;39101;53.478;6.158;2022-07-23T00:13:33;15.00;99.90
51500;DHT22;39101;53.478;6.158;2022-07-23T00:15:59;15.10;99.90
51500;DHT22;39101;53.478;6.158;2022-07-23T00:18:24;15.00;99.90
51500;DHT22;39101;53.478;6.158;2022-07-23T00:20:50;15.00;99.90
51500;DHT22;39101;53.478;6.158;2022-07-23T00:23:16;15.00;99.90
51500;DHT22;39101;53.478;6.158;2022-07-23T00:25:42;15.00;99.90
51500;DHT22;39101;53.478;6.158;2022-07-23T00:28:08;15.10;99.90
51500;DHT22;39101;53.478;6.158;2022-07-23T00:30:34;15.10;99.90
51500;DHT22;39101;53.478;6.158;2022-07-23T00:33:02;15.10;99.90
51500;DHT22;39101;53.478;6.158;2022-07-23T00:35:32;15.20;99.90
51500;DHT22;39101;53.478;6.158;2022-07-23T00:37:59;15.20;99.90
51500;DHT22;39101;53.478;6.158;2022-07-23T00:40:25;15.20;99.90
51500;DHT22;39101;53.478;6.158;2022-07-23T00:42:51;15.20;99.90
51500;DHT22;39101;53.478;6.158;2022-07-23T00:45:17;15.20;99.90
51500;DHT22;39101;53.478;6.158;2022-07-23T00:47:43;15.20;99.90
51500;DHT22;39101;53.478;6.158;2022-07-23T00:50:09;15.30;99.90
51500;DHT22;39101;53.478;6.158;2022-07-23T00:52:37;15.30;99.90
51500;DHT22;39101;53.478;6.158;2022-07-23T00:55:04;15.20;99.90
51500;DHT22;39101;53.478;6.158;2022-07-23T00:57:30;15.20;99.90
51500;DHT22;39101;53.478;6.158;2022-07-23T00:59:55;15.30;99.90
51500;DHT22;39101;53.478;6.158;2022-07-23T01:02:24;15.20;99.90
51500;DHT22;39101;53.478;6.158;2022-07-23T01:04:49;15.20;99.90
51500;DHT22;39101;53.478;6.158;2022-07-23T01:07:16;15.20;99.90
51500;DHT22;39101;53.478;6.158;2022-07-23T01:09:42;15.20;99.90
51500;DHT22;39101;53.478;6.158;2022-07-23T01:12:08;15.20;99.90
51500;DHT22;39101;53.478;6.158;2022-07-23T01:14:34;15.20;99.90
51500;DHT22;39101;53.478;6.158;2022-07-23T01:17:00;15.20;99.90
51500;DHT22;39101;53.478;6.158;2022-07-23T01:19:25;15.20;99.90
51500;DHT22;39101;53.478;6.158;2022-07-23T01:21:51;15.20;99.90
51500;DHT22;39101;53.478;6.158;2022-07-23T01:24:18;15.20;99.90
51500;DHT22;39101;53.478;6.158;2022-07-23T01:26:48;15.20;99.90
51500;DHT22;39101;53.478;6.158;2022-07-23T01:29:14;15.20;99.90
51500;DHT22;39101;53.478;6.158;2022-07-23T01:31:40;15.20;99.90
51500;DHT22;39101;53.478;6.158;2022-07-23T01:34:06;15.20;99.90
51500;DHT22;39101;53.478;6.158;2022-07-23T01:36:36;15.10;99.90
51500;DHT22;39101;53.478;6.158;2022-07-23T01:39:04;15.10;99.90
51500;DHT22;39101;53.478;6.158;2022-07-23T01:41:30;15.10;99.90
51500;DHT22;39101;53.478;6.158;2022-07-23T01:43:56;15.10;99.90
51500;DHT22;39101;53.478;6.158;2022-07-23T01:46:22;15.10;99.90
51500;DHT22;39101;53.478;6.158;2022-07-23T01:48:48;15.10;99.90
51500;DHT22;39101;53.478;6.158;2022-07-23T01:51:13;15.00;99.90
51500;DHT22;39101;53.478;6.158;2022-07-23T01:53:39;15.00;99.90
51500;DHT22;39101;53.478;6.158;2022-07-23T01:56:05;15.00;99.90
51500;DHT22;39101;53.478;6.158;2022-07-23T02:02:12;15.00;99.90
51500;DHT22;39101;53.478;6.158;2022-07-23T02:04:37;15.00;99.90
51500;DHT22;39101;53.478;6.158;2022-07-23T02:07:04;15.00;99.90
51500;DHT22;39101;53.478;6.158;2022-07-23T02:09:30;15.10;99.90
51500;DHT22;39101;53.478;6.158;2022-07-23T02:11:56;15.10;99.90
51500;DHT22;39101;53.478;6.158;2022-07-23T02:14:22;15.10;99.90
51500;DHT22;39101;53.478;6.158;2022-07-23T02:16:47;15.10;99.90
51500;DHT22;39101;53.478;6.158;2022-07-23T02:19:13;15.10;99.90
51500;DHT22;39101;53.478;6.158;2022-07-23T02:21:38;15.10;99.90
51500;DHT22;39101;53.478;6.158;2022-07-23T02:24:04;15.10;99.90
51500;DHT22;39101;53.478;6.158;2022-07-23T02:26:30;15.10;99.90
51500;DHT22;39101;53.478;6.158;2022-07-23T02:29:00;15.20;99.90
51500;DHT22;39101;53.478;6.158;2022-07-23T02:31:26;15.10;99.90
51500;DHT22;39101;53.478;6.158;2022-07-23T02:33:52;15.10;99.90
51500;DHT22;39101;53.478;6.158;2022-07-23T02:36:18;15.10;99.90
51500;DHT22;39101;53.478;6.158;2022-07-23T02:38:43;15.00;99.90
51500;DHT22;39101;53.478;6.158;2022-07-23T02:41:09;15.00;99.90
51500;DHT22;39101;53.478;6.158;2022-07-23T02:43:35;15.10;99.90
51500;DHT22;39101;53.478;6.158;2022-07-23T02:46:00;15.00;99.90
51500;DHT22;39101;53.478;6.158;2022-07-23T02:48:26;15.00;99.90
51500;DHT22;39101;53.478;6.158;2022-07-23T02:50:52;15.00;99.90
51500;DHT22;39101;53.478;6.158;2022-07-23T02:53:18;15.00;99.90
51500;DHT22;39101;53.478;6.158;2022-07-23T02:55:43;15.00;99.90
51500;DHT22;39101;53.478;6.158;2022-07-23T02:58:09;14.90;99.90
51500;DHT22;39101;53.478;6.158;2022-07-23T03:00:34;15.00;99.90
51500;DHT22;39101;53.478;6.158;2022-07-23T03:03:00;14.90;99.90
51500;DHT22;39101;53.478;6.158;2022-07-23T03:05:26;14.90;99.90
51500;DHT22;39101;53.478;6.158;2022-07-23T03:07:51;14.90;99.90
51500;DHT22;39101;53.478;6.158;2022-07-23T03:10:17;14.90;99.90
51500;DHT22;39101;53.478;6.158;2022-07-23T03:12:43;14.90;99.90
51500;DHT22;39101;53.478;6.158;2022-07-23T03:15:09;14.90;99.90
51500;DHT22;39101;53.478;6.158;2022-07-23T03:17:34;14.90;99.90
51500;DHT22;39101;53.478;6.158;2022-07-23T03:20:00;15.00;99.90
51500;DHT22;39101;53.478;6.158;2022-07-23T03:22:26;15.00;99.90
51500;DHT22;39101;53.478;6.158;2022-07-23T03:24:51;15.00;99.90
51500;DHT22;39101;53.478;6.158;2022-07-23T03:27:24;15.00;99.90
51500;DHT22;39101;53.478;6.158;2022-07-23T03:29:51;14.90;99.90
51500;DHT22;39101;53.478;6.158;2022-07-23T03:32:17;14.90;99.90
51500;DHT22;39101;53.478;6.158;2022-07-23T03:34:43;14.90;99.90
51500;DHT22;39101;53.478;6.158;2022-07-23T03:37:08;14.90;99.90
51500;DHT22;39101;53.478;6.158;2022-07-23T03:39:34;14.90;99.90
51500;DHT22;39101;53.478;6.158;2022-07-23T03:42:00;14.90;99.90
51500;DHT22;39101;53.478;6.158;2022-07-23T03:44:26;14.90;99.90
51500;DHT22;39101;53.478;6.158;2022-07-23T03:46:52;14.90;99.90
51500;DHT22;39101;53.478;6.158;2022-07-23T03:49:17;14.90;99.90
51500;DHT22;39101;53.478;6.158;2022-07-23T03:51:43;14.80;99.90
51500;DHT22;39101;53.478;6.158;2022-07-23T03:54:09;14.80;99.90
51500;DHT22;39101;53.478;6.158;2022-07-23T03:56:35;14.80;99.90
51500;DHT22;39101;53.478;6.158;2022-07-23T03:59:01;14.80;99.90
51500;DHT22;39101;53.478;6.158;2022-07-23T04:01:27;14.80;99.90
51500;DHT22;39101;53.478;6.158;2022-07-23T04:03:52;14.80;99.90
51500;DHT22;39101;53.478;6.158;2022-07-23T04:06:18;14.80;99.90
51500;DHT22;39101;53.478;6.158;2022-07-23T04:08:44;14.80;99.90
51500;DHT22;39101;53.478;6.158;2022-07-23T04:11:09;14.80;99.90
51500;DHT22;39101;53.478;6.158;2022-07-23T04:13:35;14.80;99.90
51500;DHT22;39101;53.478;6.158;2022-07-23T04:16:01;14.80;99.90
51500;DHT22;39101;53.478;6.158;2022-07-23T04:18:26;14.80;99.90
51500;DHT22;39101;53.478;6.158;2022-07-23T04:20:52;14.80;99.90
51500;DHT22;39101;53.478;6.158;2022-07-23T04:23:18;14.80;99.90
51500;DHT22;39101;53.478;6.158;2022-07-23T04:25:43;14.80;99.90
51500;DHT22;39101;53.478;6.158;2022-07-23T04:28:09;14.80;99.90
51500;DHT22;39101;53.478;6.158;2022-07-23T04:30:35;14.80;99.90
51500;DHT22;39101;53.478;6.158;2022-07-23T04:33:00;14.80;99.90
51500;DHT22;39101;53.478;6.158;2022-07-23T04:35:26;14.80;99.90
51500;DHT22;39101;53.478;6.158;2022-07-23T04:37:52;14.80;99.90
51500;DHT22;39101;53.478;6.158;2022-07-23T04:40:18;14.90;99.90
51500;DHT22;39101;53.478;6.158;2022-07-23T04:42:44;14.90;99.90
51500;DHT22;39101;53.478;6.158;2022-07-23T04:45:09;14.90;99.90
51500;DHT22;39101;53.478;6.158;2022-07-23T04:47:35;14.90;99.90
51500;DHT22;39101;53.478;6.158;2022-07-23T04:50:01;14.90;99.90
51500;DHT22;39101;53.478;6.158;2022-07-23T04:52:26;15.00;99.90
51500;DHT22;39101;53.478;6.158;2022-07-23T04:54:52;15.00;99.90
51500;DHT22;39101;53.478;6.158;2022-07-23T04:57:18;15.10;99.90
51500;DHT22;39101;53.478;6.158;2022-07-23T04:59:43;15.00;99.90
51500;DHT22;39101;53.478;6.158;2022-07-23T05:02:09;15.10;99.90
51500;DHT22;39101;53.478;6.158;2022-07-23T05:04:35;15.10;99.90
51500;DHT22;39101;53.478;6.158;2022-07-23T05:07:00;15.20;99.90
51500;DHT22;39101;53.478;6.158;2022-07-23T05:09:26;15.20;99.90
51500;DHT22;39101;53.478;6.158;2022-07-23T05:11:51;15.30;99.90
51500;DHT22;39101;53.478;6.158;2022-07-23T05:14:17;15.30;99.90
51500;DHT22;39101;53.478;6.158;2022-07-23T05:16:43;15.30;99.90
51500;DHT22;39101;53.478;6.158;2022-07-23T05:19:08;15.40;99.90
51500;DHT22;39101;53.478;6.158;2022-07-23T05:21:34;15.40;99.90
51500;DHT22;39101;53.478;6.158;2022-07-23T05:24:00;15.40;99.90
51500;DHT22;39101;53.478;6.158;2022-07-23T05:26:25;15.40;99.90
51500;DHT22;39101;53.478;6.158;2022-07-23T05:28:51;15.50;99.90
51500;DHT22;39101;53.478;6.158;2022-07-23T05:31:17;15.40;99.90
51500;DHT22;39101;53.478;6.158;2022-07-23T05:33:42;15.50;99.90
51500;DHT22;39101;53.478;6.158;2022-07-23T05:36:08;15.50;99.90
51500;DHT22;39101;53.478;6.158;2022-07-23T05:38:34;15.50;99.90
51500;DHT22;39101;53.478;6.158;2022-07-23T05:41:00;15.60;99.90
51500;DHT22;39101;53.478;6.158;2022-07-23T05:43:26;15.70;99.90
51500;DHT22;39101;53.478;6.158;2022-07-23T05:45:52;15.80;99.90
51500;DHT22;39101;53.478;6.158;2022-07-23T05:48:19;15.90;99.90
51500;DHT22;39101;53.478;6.158;2022-07-23T05:50:45;15.90;99.90
51500;DHT22;39101;53.478;6.158;2022-07-23T05:53:10;15.90;99.90
51500;DHT22;39101;53.478;6.158;2022-07-23T05:55:36;15.80;99.90
51500;DHT22;39101;53.478;6.158;2022-07-23T05:58:02;15.80;99.90
51500;DHT22;39101;53.478;6.158;2022-07-23T06:00:29;15.70;99.90
51500;DHT22;39101;53.478;6.158;2022-07-23T06:02:55;15.70;99.90
51500;DHT22;39101;53.478;6.158;2022-07-23T06:05:21;15.80;99.90
51500;DHT22;39101;53.478;6.158;2022-07-23T06:07:47;15.80;99.90
51500;DHT22;39101;53.478;6.158;2022-07-23T06:10:13;15.90;99.90
51500;DHT22;39101;53.478;6.158;2022-07-23T06:12:39;16.00;99.90
51500;DHT22;39101;53.478;6.158;2022-07-23T06:15:05;16.00;99.90
51500;DHT22;39101;53.478;6.158;2022-07-23T06:17:31;16.00;99.90
51500;DHT22;39101;53.478;6.158;2022-07-23T06:19:56;16.00;99.90
51500;DHT22;39101;53.478;6.158;2022-07-23T06:22:22;16.00;99.90
51500;DHT22;39101;53.478;6.158;2022-07-23T06:24:49;16.00;99.90
51500;DHT22;39101;53.478;6.158;2022-07-23T06:27:14;16.00;99.90
51500;DHT22;39101;53.478;6.158;2022-07-23T06:29:40;16.00;99.90
51500;DHT22;39101;53.478;6.158;2022-07-23T06:32:06;16.00;99.90
51500;DHT22;39101;53.478;6.158;2022-07-23T06:34:32;16.00;99.90
51500;DHT22;39101;53.478;6.158;2022-07-23T06:36:59;16.00;99.90
51500;DHT22;39101;53.478;6.158;2022-07-23T06:39:25;16.00;99.90
51500;DHT22;39101;53.478;6.158;2022-07-23T06:41:51;15.90;99.90
51500;DHT22;39101;53.478;6.158;2022-07-23T06:44:16;15.90;99.90
51500;DHT22;39101;53.478;6.158;2022-07-23T06:46:42;15.90;99.90
51500;DHT22;39101;53.478;6.158;2022-07-23T06:49:08;15.90;99.90
51500;DHT22;39101;53.478;6.158;2022-07-23T06:51:34;16.00;99.90
51500;DHT22;39101;53.478;6.158;2022-07-23T06:54:00;16.00;99.90
51500;DHT22;39101;53.478;6.158;2022-07-23T06:56:25;16.00;99.90
51500;DHT22;39101;53.478;6.158;2022-07-23T06:58:51;16.00;99.90
51500;DHT22;39101;53.478;6.158;2022-07-23T07:01:17;16.10;99.90
51500;DHT22;39101;53.478;6.158;2022-07-23T07:03:42;16.10;99.90
51500;DHT22;39101;53.478;6.158;2022-07-23T07:06:08;16.30;99.90
51500;DHT22;39101;53.478;6.158;2022-07-23T07:08:34;16.30;99.90
51500;DHT22;39101;53.478;6.158;2022-07-23T07:11:00;16.40;99.90
51500;DHT22;39101;53.478;6.158;2022-07-23T07:13:26;16.40;99.90
51500;DHT22;39101;53.478;6.158;2022-07-23T07:15:51;16.50;99.90
51500;DHT22;39101;53.478;6.158;2022-07-23T07:18:17;16.60;99.90
51500;DHT22;39101;53.478;6.158;2022-07-23T07:20:43;16.70;99.90
51500;DHT22;39101;53.478;6.158;2022-07-23T07:23:08;16.70;99.90
51500;DHT22;39101;53.478;6.158;2022-07-23T07:25:34;16.80;99.90
51500;DHT22;39101;53.478;6.158;2022-07-23T07:28:00;17.00;99.90
51500;DHT22;39101;53.478;6.158;2022-07-23T07:30:25;17.00;99.90
51500;DHT22;39101;53.478;6.158;2022-07-23T07:32:51;17.00;99.90
51500;DHT22;39101;53.478;6.158;2022-07-23T07:35:17;17.00;99.90
51500;DHT22;39101;53.478;6.158;2022-07-23T07:37:42;17.00;99.90
51500;DHT22;39101;53.478;6.158;2022-07-23T07:40:08;17.00;99.90
51500;DHT22;39101;53.478;6.158;2022-07-23T07:42:34;17.00;99.90
51500;DHT22;39101;53.478;6.158;2022-07-23T07:45:00;17.00;99.90
51500;DHT22;39101;53.478;6.158;2022-07-23T07:47:26;16.90;99.90
51500;DHT22;39101;53.478;6.158;2022-07-23T07:49:51;16.90;99.90
51500;DHT22;39101;53.478;6.158;2022-07-23T07:52:17;17.00;99.90
51500;DHT22;39101;53.478;6.158;2022-07-23T07:54:43;17.00;99.90
51500;DHT22;39101;53.478;6.158;2022-07-23T07:57:09;17.10;99.90
51500;DHT22;39101;53.478;6.158;2022-07-23T07:59:34;17.10;99.90
51500;DHT22;39101;53.478;6.158;2022-07-23T08:02:00;17.10;99.90
51500;DHT22;39101;53.478;6.158;2022-07-23T08:04:26;17.10;99.90
51500;DHT22;39101;53.478;6.158;2022-07-23T08:06:51;17.10;99.90
51500;DHT22;39101;53.478;6.158;2022-07-23T08:09:17;17.20;99.90
51500;DHT22;39101;53.478;6.158;2022-07-23T08:11:43;17.20;99.90
51500;DHT22;39101;53.478;6.158;2022-07-23T08:14:08;17.30;99.90
51500;DHT22;39101;53.478;6.158;2022-07-23T08:16:36;17.40;99.90
51500;DHT22;39101;53.478;6.158;2022-07-23T08:19:02;17.40;99.90
51500;DHT22;39101;53.478;6.158;2022-07-23T08:21:27;17.50;99.90
51500;DHT22;39101;53.478;6.158;2022-07-23T08:23:53;17.50;99.90
51500;DHT22;39101;53.478;6.158;2022-07-23T08:26:19;17.60;99.90
51500;DHT22;39101;53.478;6.158;2022-07-23T08:28:44;17.60;99.90
51500;DHT22;39101;53.478;6.158;2022-07-23T08:31:10;17.60;99.90
51500;DHT22;39101;53.478;6.158;2022-07-23T08:33:37;17.60;99.90
51500;DHT22;39101;53.478;6.158;2022-07-23T08:36:03;17.60;99.90
51500;DHT22;39101;53.478;6.158;2022-07-23T08:38:29;17.60;99.90
51500;DHT22;39101;53.478;6.158;2022-07-23T08:40:55;17.50;99.90
51500;DHT22;39101;53.478;6.158;2022-07-23T08:43:28;17.50;99.90
51500;DHT22;39101;53.478;6.158;2022-07-23T08:45:56;17.50;99.90
51500;DHT22;39101;53.478;6.158;2022-07-23T08:48:24;17.50;99.90
51500;DHT22;39101;53.478;6.158;2022-07-23T08:50:56;17.40;99.90
51500;DHT22;39101;53.478;6.158;2022-07-23T08:53:22;17.50;99.90
51500;DHT22;39101;53.478;6.158;2022-07-23T08:55:50;17.50;99.90
51500;DHT22;39101;53.478;6.158;2022-07-23T08:58:25;17.60;99.90
51500;DHT22;39101;53.478;6.158;2022-07-23T09:00:51;17.60;99.90
51500;DHT22;39101;53.478;6.158;2022-07-23T09:03:22;17.70;99.90
51500;DHT22;39101;53.478;6.158;2022-07-23T09:05:52;17.70;99.90
51500;DHT22;39101;53.478;6.158;2022-07-23T09:08:20;17.80;99.90
51500;DHT22;39101;53.478;6.158;2022-07-23T09:10:55;17.90;99.90
51500;DHT22;39101;53.478;6.158;2022-07-23T09:15:54;18.00;99.90
51500;DHT22;39101;53.478;6.158;2022-07-23T09:18:37;17.80;99.90
51500;DHT22;39101;53.478;6.158;2022-07-23T09:21:39;17.90;99.90
51500;DHT22;39101;53.478;6.158;2022-07-23T09:24:12;17.90;99.90
51500;DHT22;39101;53.478;6.158;2022-07-23T09:26:48;17.80;99.90
51500;DHT22;39101;53.478;6.158;2022-07-23T09:29:25;17.80;99.90
51500;DHT22;39101;53.478;6.158;2022-07-23T09:31:52;17.80;99.90
51500;DHT22;39101;53.478;6.158;2022-07-23T09:36:46;17.70;99.90
51500;DHT22;39101;53.478;6.158;2022-07-23T09:39:13;17.80;99.90
51500;DHT22;39101;53.478;6.158;2022-07-23T09:41:44;17.80;99.90
51500;DHT22;39101;53.478;6.158;2022-07-23T09:44:15;17.80;99.90
51500;DHT22;39101;53.478;6.158;2022-07-23T09:46:43;17.70;99.90
51500;DHT22;39101;53.478;6.158;2022-07-23T09:49:20;17.80;99.90
51500;DHT22;39101;53.478;6.158;2022-07-23T09:51:57;17.80;99.90
51500;DHT22;39101;53.478;6.158;2022-07-23T09:56:51;17.80;99.90
51500;DHT22;39101;53.478;6.158;2022-07-23T09:59:18;17.80;99.90
51500;DHT22;39101;53.478;6.158;2022-07-23T10:01:47;17.90;99.90
51500;DHT22;39101;53.478;6.158;2022-07-23T10:04:13;17.90;99.90
51500;DHT22;39101;53.478;6.158;2022-07-23T10:06:39;17.90;99.90
51500;DHT22;39101;53.478;6.158;2022-07-23T10:09:08;17.90;99.90
51500;DHT22;39101;53.478;6.158;2022-07-23T10:11:34;17.90;99.90
51500;DHT22;39101;53.478;6.158;2022-07-23T10:14:00;18.00;99.90
51500;DHT22;39101;53.478;6.158;2022-07-23T10:16:29;18.00;99.90
51500;DHT22;39101;53.478;6.158;2022-07-23T10:18:55;17.90;99.90
51500;DHT22;39101;53.478;6.158;2022-07-23T10:21:30;17.90;99.90
51500;DHT22;39101;53.478;6.158;2022-07-23T10:30:01;17.90;99.90
51500;DHT22;39101;53.478;6.158;2022-07-23T10:35:58;17.90;99.90
51500;DHT22;39101;53.478;6.158;2022-07-23T10:41:04;18.10;99.90
51500;DHT22;39101;53.478;6.158;2022-07-23T10:43:30;18.10;99.90
51500;DHT22;39101;53.478;6.158;2022-07-23T10:46:20;18.20;99.90
51500;DHT22;39101;53.478;6.158;2022-07-23T10:48:42;18.20;99.90
51500;DHT22;39101;53.478;6.158;2022-07-23T10:51:12;18.20;99.90
51500;DHT22;39101;53.478;6.158;2022-07-23T10:56:48;18.10;99.90
51500;DHT22;39101;53.478;6.158;2022-07-23T10:59:04;18.10;99.90
51500;DHT22;39101;53.478;6.158;2022-07-23T11:01:35;18.10;99.90
51500;DHT22;39101;53.478;6.158;2022-07-23T11:04:02;18.20;99.90
51500;DHT22;39101;53.478;6.158;2022-07-23T11:09:26;18.20;99.90
51500;DHT22;39101;53.478;6.158;2022-07-23T11:17:32;18.20;99.90
51500;DHT22;39101;53.478;6.158;2022-07-23T11:22:40;18.20;99.90
51500;DHT22;39101;53.478;6.158;2022-07-23T11:25:33;18.30;99.90
51500;DHT22;39101;53.478;6.158;2022-07-23T11:28:17;18.40;99.90
51500;DHT22;39101;53.478;6.158;2022-07-23T11:30:46;18.30;99.90
51500;DHT22;39101;53.478;6.158;2022-07-23T11:35:46;18.20;99.90
51500;DHT22;39101;53.478;6.158;2022-07-23T11:38:20;18.20;99.90
51500;DHT22;39101;53.478;6.158;2022-07-23T11:40:49;18.20;99.90
51500;DHT22;39101;53.478;6.158;2022-07-23T11:43:15;18.30;99.90
51500;DHT22;39101;53.478;6.158;2022-07-23T11:45:46;18.40;99.90
51500;DHT22;39101;53.478;6.158;2022-07-23T11:48:18;18.40;99.90
51500;DHT22;39101;53.478;6.158;2022-07-23T11:50:44;18.40;99.90
51500;DHT22;39101;53.478;6.158;2022-07-23T11:53:10;18.50;99.90
51500;DHT22;39101;53.478;6.158;2022-07-23T11:55:36;18.40;99.90
51500;DHT22;39101;53.478;6.158;2022-07-23T11:58:02;18.50;99.90
51500;DHT22;39101;53.478;6.158;2022-07-23T12:00:29;18.40;99.90
51500;DHT22;39101;53.478;6.158;2022-07-23T12:02:58;18.50;99.90
51500;DHT22;39101;53.478;6.158;2022-07-23T12:05:31;18.50;99.90
51500;DHT22;39101;53.478;6.158;2022-07-23T12:07:58;18.50;99.90
51500;DHT22;39101;53.478;6.158;2022-07-23T12:12:54;18.50;99.90
51500;DHT22;39101;53.478;6.158;2022-07-23T12:15:23;18.50;99.90
51500;DHT22;39101;53.478;6.158;2022-07-23T12:17:50;18.60;99.90
51500;DHT22;39101;53.478;6.158;2022-07-23T12:20:21;18.50;99.90
51500;DHT22;39101;53.478;6.158;2022-07-23T12:22:50;18.40;99.90
51500;DHT22;39101;53.478;6.158;2022-07-23T12:25:21;18.40;99.90
51500;DHT22;39101;53.478;6.158;2022-07-23T12:30:34;18.40;99.90
51500;DHT22;39101;53.478;6.158;2022-07-23T12:33:03;18.40;99.90
51500;DHT22;39101;53.478;6.158;2022-07-23T12:35:32;18.40;99.90
51500;DHT22;39101;53.478;6.158;2022-07-23T12:38:04;18.30;99.90
51500;DHT22;39101;53.478;6.158;2022-07-23T12:43:09;18.40;99.90
51500;DHT22;39101;53.478;6.158;2022-07-23T12:45:48;18.40;99.90
51500;DHT22;39101;53.478;6.158;2022-07-23T12:48:20;18.40;99.90
51500;DHT22;39101;53.478;6.158;2022-07-23T12:50:51;18.40;99.90
51500;DHT22;39101;53.478;6.158;2022-07-23T12:53:22;18.50;99.90
51500;DHT22;39101;53.478;6.158;2022-07-23T12:55:49;18.50;99.90
51500;DHT22;39101;53.478;6.158;2022-07-23T12:58:17;18.40;99.90
51500;DHT22;39101;53.478;6.158;2022-07-23T13:00:52;18.40;99.90
51500;DHT22;39101;53.478;6.158;2022-07-23T13:03:38;18.40;99.90
51500;DHT22;39101;53.478;6.158;2022-07-23T13:06:07;18.40;99.90
51500;DHT22;39101;53.478;6.158;2022-07-23T13:08:34;18.40;99.90
51500;DHT22;39101;53.478;6.158;2022-07-23T13:11:00;18.40;99.90
51500;DHT22;39101;53.478;6.158;2022-07-23T13:13:28;18.40;99.90
51500;DHT22;39101;53.478;6.158;2022-07-23T13:15:55;18.40;99.90
51500;DHT22;39101;53.478;6.158;2022-07-23T13:18:21;18.40;99.90
51500;DHT22;39101;53.478;6.158;2022-07-23T13:20:47;18.40;99.90
51500;DHT22;39101;53.478;6.158;2022-07-23T13:23:13;18.50;99.90
51500;DHT22;39101;53.478;6.158;2022-07-23T13:25:40;18.50;99.90
51500;DHT22;39101;53.478;6.158;2022-07-23T13:28:05;18.50;99.90
51500;DHT22;39101;53.478;6.158;2022-07-23T13:30:31;18.50;99.90
51500;DHT22;39101;53.478;6.158;2022-07-23T13:32:57;18.50;99.90
51500;DHT22;39101;53.478;6.158;2022-07-23T13:35:22;18.50;99.90
51500;DHT22;39101;53.478;6.158;2022-07-23T13:37:48;18.40;99.90
51500;DHT22;39101;53.478;6.158;2022-07-23T13:40:14;18.40;99.90
51500;DHT22;39101;53.478;6.158;2022-07-23T13:42:40;18.50;99.90
51500;DHT22;39101;53.478;6.158;2022-07-23T13:45:06;18.50;99.90
51500;DHT22;39101;53.478;6.158;2022-07-23T13:47:32;18.50;99.90
51500;DHT22;39101;53.478;6.158;2022-07-23T13:49:58;18.50;99.90
51500;DHT22;39101;53.478;6.158;2022-07-23T13:52:24;18.50;99.90
51500;DHT22;39101;53.478;6.158;2022-07-23T13:54:50;18.60;99.90
51500;DHT22;39101;53.478;6.158;2022-07-23T13:57:16;18.50;99.90
51500;DHT22;39101;53.478;6.158;2022-07-23T13:59:41;18.60;99.90
51500;DHT22;39101;53.478;6.158;2022-07-23T14:02:07;18.60;99.90
51500;DHT22;39101;53.478;6.158;2022-07-23T14:04:33;18.70;99.90
51500;DHT22;39101;53.478;6.158;2022-07-23T14:06:59;18.70;99.90
51500;DHT22;39101;53.478;6.158;2022-07-23T14:09:25;18.60;99.90
51500;DHT22;39101;53.478;6.158;2022-07-23T14:11:51;18.60;99.90
51500;DHT22;39101;53.478;6.158;2022-07-23T14:14:18;18.70;99.90
51500;DHT22;39101;53.478;6.158;2022-07-23T14:16:44;18.70;99.90
51500;DHT22;39101;53.478;6.158;2022-07-23T14:19:10;18.70;99.90
51500;DHT22;39101;53.478;6.158;2022-07-23T14:21:36;18.70;99.90
51500;DHT22;39101;53.478;6.158;2022-07-23T14:24:02;18.70;99.90
51500;DHT22;39101;53.478;6.158;2022-07-23T14:26:28;18.70;99.90
51500;DHT22;39101;53.478;6.158;2022-07-23T14:28:54;18.70;99.90
51500;DHT22;39101;53.478;6.158;2022-07-23T14:31:20;18.70;99.90
51500;DHT22;39101;53.478;6.158;2022-07-23T14:33:46;18.70;99.90
51500;DHT22;39101;53.478;6.158;2022-07-23T14:36:12;18.80;99.90
51500;DHT22;39101;53.478;6.158;2022-07-23T14:38:37;18.80;99.90
51500;DHT22;39101;53.478;6.158;2022-07-23T14:41:03;18.90;99.90
51500;DHT22;39101;53.478;6.158;2022-07-23T14:43:32;18.90;99.90
51500;DHT22;39101;53.478;6.158;2022-07-23T14:45:58;18.80;99.90
51500;DHT22;39101;53.478;6.158;2022-07-23T14:48:24;18.80;99.90
51500;DHT22;39101;53.478;6.158;2022-07-23T14:50:49;18.80;99.90
51500;DHT22;39101;53.478;6.158;2022-07-23T14:53:15;18.80;99.90
51500;DHT22;39101;53.478;6.158;2022-07-23T14:55:41;18.90;99.90
51500;DHT22;39101;53.478;6.158;2022-07-23T14:58:07;18.80;99.90
51500;DHT22;39101;53.478;6.158;2022-07-23T15:00:32;18.90;99.90
51500;DHT22;39101;53.478;6.158;2022-07-23T15:02:58;18.90;99.90
51500;DHT22;39101;53.478;6.158;2022-07-23T15:05:24;18.90;99.90
51500;DHT22;39101;53.478;6.158;2022-07-23T15:07:50;19.00;99.90
51500;DHT22;39101;53.478;6.158;2022-07-23T15:10:16;19.00;99.90
51500;DHT22;39101;53.478;6.158;2022-07-23T15:12:41;18.90;99.90
51500;DHT22;39101;53.478;6.158;2022-07-23T15:15:07;19.00;99.90
51500;DHT22;39101;53.478;6.158;2022-07-23T15:17:33;19.10;99.90
51500;DHT22;39101;53.478;6.158;2022-07-23T15:19:59;19.10;99.90
51500;DHT22;39101;53.478;6.158;2022-07-23T15:22:25;19.10;99.90
51500;DHT22;39101;53.478;6.158;2022-07-23T15:24:50;19.10;99.90
51500;DHT22;39101;53.478;6.158;2022-07-23T15:27:16;19.10;99.90
51500;DHT22;39101;53.478;6.158;2022-07-23T15:29:44;19.20;99.90
51500;DHT22;39101;53.478;6.158;2022-07-23T15:32:09;19.20;99.90
51500;DHT22;39101;53.478;6.158;2022-07-23T15:34:37;19.20;99.90
51500;DHT22;39101;53.478;6.158;2022-07-23T15:37:03;19.20;99.90
51500;DHT22;39101;53.478;6.158;2022-07-23T15:39:33;19.20;99.90
51500;DHT22;39101;53.478;6.158;2022-07-23T15:42:00;19.30;99.90
51500;DHT22;39101;53.478;6.158;2022-07-23T15:44:26;19.40;99.90
51500;DHT22;39101;53.478;6.158;2022-07-23T15:46:52;19.30;99.90
51500;DHT22;39101;53.478;6.158;2022-07-23T15:49:18;19.40;99.90
51500;DHT22;39101;53.478;6.158;2022-07-23T15:51:44;19.40;99.90
51500;DHT22;39101;53.478;6.158;2022-07-23T15:54:09;19.40;99.90
51500;DHT22;39101;53.478;6.158;2022-07-23T15:56:35;19.40;99.90
51500;DHT22;39101;53.478;6.158;2022-07-23T15:59:01;19.40;99.90
51500;DHT22;39101;53.478;6.158;2022-07-23T16:01:26;19.50;99.90
51500;DHT22;39101;53.478;6.158;2022-07-23T16:03:55;19.50;99.90
51500;DHT22;39101;53.478;6.158;2022-07-23T16:06:21;19.50;99.90
51500;DHT22;39101;53.478;6.158;2022-07-23T16:08:47;19.50;99.90
51500;DHT22;39101;53.478;6.158;2022-07-23T16:11:13;19.50;99.90
51500;DHT22;39101;53.478;6.158;2022-07-23T16:13:39;19.40;99.90
51500;DHT22;39101;53.478;6.158;2022-07-23T16:16:05;19.40;99.90